sensor_id;sensor_type;location;lat;lon;timestamp;P1;durP1;ratioP1;P2;durP2;ratioP2
8663;SDS011;4369;47.842;13.096;2022-07-29T00:00:38;3.50;;;2.90;;
8663;SDS011;4369;47.842;13.096;2022-07-29T00:03:04;3.93;;;3.40;;
8663;SDS011;4369;47.842;13.096;2022-07-29T00:05:33;3.70;;;3.40;;
8663;SDS011;4369;47.842;13.096;2022-07-29T00:08:00;4.07;;;3.37;;
8663;SDS011;4369;47.842;13.096;2022-07-29T00:10:26;4.50;;;3.47;;
8663;SDS011;4369;47.842;13.096;2022-07-29T00:13:00;4.23;;;3.43;;
8663;SDS011;4369;47.842;13.096;2022-07-29T00:15:27;4.93;;;3.50;;
8663;SDS011;4369;47.842;13.096;2022-07-29T00:17:54;4.60;;;3.53;;
8663;SDS011;4369;47.842;13.096;2022-07-29T00:20:21;3.80;;;3.50;;
8663;SDS011;4369;47.842;13.096;2022-07-29T00:22:49;4.40;;;3.47;;
8663;SDS011;4369;47.842;13.096;2022-07-29T00:25:16;3.50;;;3.20;;
8663;SDS011;4369;47.842;13.096;2022-07-29T00:27:43;5.13;;;3.40;;
8663;SDS011;4369;47.842;13.096;2022-07-29T00:30:10;3.63;;;3.37;;
8663;SDS011;4369;47.842;13.096;2022-07-29T00:32:38;3.87;;;3.57;;
8663;SDS011;4369;47.842;13.096;2022-07-29T00:35:05;4.80;;;3.50;;
8663;SDS011;4369;47.842;13.096;2022-07-29T00:37:52;4.87;;;3.67;;
8663;SDS011;4369;47.842;13.096;2022-07-29T00:40:19;3.97;;;3.60;;
8663;SDS011;4369;47.842;13.096;2022-07-29T00:42:47;3.37;;;3.17;;
8663;SDS011;4369;47.842;13.096;2022-07-29T00:45:15;3.87;;;3.57;;
8663;SDS011;4369;47.842;13.096;2022-07-29T00:47:42;4.10;;;3.70;;
8663;SDS011;4369;47.842;13.096;2022-07-29T00:50:11;3.87;;;3.37;;
8663;SDS011;4369;47.842;13.096;2022-07-29T00:52:38;3.90;;;3.50;;
8663;SDS011;4369;47.842;13.096;2022-07-29T00:55:09;6.50;;;3.60;;
8663;SDS011;4369;47.842;13.096;2022-07-29T00:57:37;4.93;;;3.80;;
8663;SDS011;4369;47.842;13.096;2022-07-29T01:00:06;4.10;;;3.70;;
8663;SDS011;4369;47.842;13.096;2022-07-29T01:02:35;3.80;;;3.50;;
8663;SDS011;4369;47.842;13.096;2022-07-29T01:05:02;7.03;;;3.67;;
8663;SDS011;4369;47.842;13.096;2022-07-29T01:07:30;4.10;;;3.70;;
8663;SDS011;4369;47.842;13.096;2022-07-29T01:09:57;4.23;;;3.83;;
8663;SDS011;4369;47.842;13.096;2022-07-29T01:12:27;4.00;;;3.70;;
8663;SDS011;4369;47.842;13.096;2022-07-29T01:14:57;3.80;;;3.50;;
8663;SDS011;4369;47.842;13.096;2022-07-29T01:17:26;4.80;;;3.67;;
8663;SDS011;4369;47.842;13.096;2022-07-29T01:20:00;3.87;;;3.57;;
8663;SDS011;4369;47.842;13.096;2022-07-29T01:22:35;3.60;;;3.30;;
8663;SDS011;4369;47.842;13.096;2022-07-29T01:25:27;4.83;;;3.60;;
8663;SDS011;4369;47.842;13.096;2022-07-29T01:28:14;3.90;;;3.60;;
8663;SDS011;4369;47.842;13.096;2022-07-29T01:30:49;3.90;;;3.60;;
8663;SDS011;4369;47.842;13.096;2022-07-29T01:33:18;3.53;;;3.30;;
8663;SDS011;4369;47.842;13.096;2022-07-29T01:36:22;3.80;;;3.50;;
8663;SDS011;4369;47.842;13.096;2022-07-29T01:38:54;3.73;;;3.43;;
8663;SDS011;4369;47.842;13.096;2022-07-29T01:41:27;4.10;;;3.60;;
8663;SDS011;4369;47.842;13.096;2022-07-29T01:43:58;4.70;;;3.67;;
8663;SDS011;4369;47.842;13.096;2022-07-29T01:46:30;4.10;;;3.57;;
8663;SDS011;4369;47.842;13.096;2022-07-29T01:49:02;4.13;;;3.47;;
8663;SDS011;4369;47.842;13.096;2022-07-29T01:51:35;4.00;;;3.33;;
8663;SDS011;4369;47.842;13.096;2022-07-29T01:54:10;3.80;;;3.07;;
8663;SDS011;4369;47.842;13.096;2022-07-29T01:56:42;3.87;;;3.57;;
8663;SDS011;4369;47.842;13.096;2022-07-29T01:59:11;3.40;;;3.20;;
8663;SDS011;4369;47.842;13.096;2022-07-29T02:01:39;4.77;;;3.27;;
8663;SDS011;4369;47.842;13.096;2022-07-29T02:04:09;3.70;;;3.40;;
8663;SDS011;4369;47.842;13.096;2022-07-29T02:06:38;3.47;;;3.23;;
8663;SDS011;4369;47.842;13.096;2022-07-29T02:09:08;4.17;;;3.40;;
8663;SDS011;4369;47.842;13.096;2022-07-29T02:11:37;3.33;;;3.13;;
8663;SDS011;4369;47.842;13.096;2022-07-29T02:14:05;3.53;;;3.23;;
8663;SDS011;4369;47.842;13.096;2022-07-29T02:16:35;3.33;;;3.03;;
8663;SDS011;4369;47.842;13.096;2022-07-29T02:19:05;3.80;;;3.50;;
8663;SDS011;4369;47.842;13.096;2022-07-29T02:21:34;4.10;;;3.50;;
8663;SDS011;4369;47.842;13.096;2022-07-29T02:24:02;3.63;;;3.33;;
8663;SDS011;4369;47.842;13.096;2022-07-29T02:26:30;3.60;;;3.30;;
8663;SDS011;4369;47.842;13.096;2022-07-29T02:28:58;4.07;;;3.50;;
8663;SDS011;4369;47.842;13.096;2022-07-29T02:31:28;3.80;;;3.27;;
8663;SDS011;4369;47.842;13.096;2022-07-29T02:33:59;3.20;;;3.00;;
8663;SDS011;4369;47.842;13.096;2022-07-29T02:36:29;3.50;;;3.20;;
8663;SDS011;4369;47.842;13.096;2022-07-29T02:38:57;3.90;;;3.60;;
8663;SDS011;4369;47.842;13.096;2022-07-29T02:41:27;3.60;;;3.30;;
8663;SDS011;4369;47.842;13.096;2022-07-29T02:43:56;3.97;;;3.67;;
8663;SDS011;4369;47.842;13.096;2022-07-29T02:46:29;3.77;;;3.57;;
8663;SDS011;4369;47.842;13.096;2022-07-29T02:48:58;5.47;;;3.20;;
8663;SDS011;4369;47.842;13.096;2022-07-29T02:51:32;3.97;;;3.57;;
8663;SDS011;4369;47.842;13.096;2022-07-29T02:54:06;4.07;;;3.67;;
8663;SDS011;4369;47.842;13.096;2022-07-29T02:56:35;4.60;;;3.50;;
8663;SDS011;4369;47.842;13.096;2022-07-29T02:59:06;3.83;;;3.40;;
8663;SDS011;4369;47.842;13.096;2022-07-29T03:01:36;3.73;;;3.40;;
8663;SDS011;4369;47.842;13.096;2022-07-29T03:04:07;3.80;;;3.40;;
8663;SDS011;4369;47.842;13.096;2022-07-29T03:06:39;3.80;;;3.50;;
8663;SDS011;4369;47.842;13.096;2022-07-29T03:09:09;4.60;;;3.40;;
8663;SDS011;4369;47.842;13.096;2022-07-29T03:11:37;3.70;;;3.40;;
8663;SDS011;4369;47.842;13.096;2022-07-29T03:14:05;4.07;;;3.77;;
8663;SDS011;4369;47.842;13.096;2022-07-29T03:16:33;4.10;;;3.80;;
8663;SDS011;4369;47.842;13.096;2022-07-29T03:19:02;3.80;;;3.50;;
8663;SDS011;4369;47.842;13.096;2022-07-29T03:21:30;4.97;;;4.17;;
8663;SDS011;4369;47.842;13.096;2022-07-29T03:23:58;4.47;;;4.17;;
8663;SDS011;4369;47.842;13.096;2022-07-29T03:26:25;4.23;;;3.83;;
8663;SDS011;4369;47.842;13.096;2022-07-29T03:28:52;4.20;;;3.90;;
8663;SDS011;4369;47.842;13.096;2022-07-29T03:31:19;3.60;;;3.30;;
8663;SDS011;4369;47.842;13.096;2022-07-29T03:33:46;6.43;;;3.90;;
8663;SDS011;4369;47.842;13.096;2022-07-29T03:36:12;4.50;;;4.07;;
8663;SDS011;4369;47.842;13.096;2022-07-29T03:38:39;3.60;;;3.30;;
8663;SDS011;4369;47.842;13.096;2022-07-29T03:41:10;4.23;;;3.60;;
8663;SDS011;4369;47.842;13.096;2022-07-29T03:43:39;4.97;;;3.67;;
8663;SDS011;4369;47.842;13.096;2022-07-29T03:46:09;3.80;;;3.47;;
8663;SDS011;4369;47.842;13.096;2022-07-29T03:48:39;3.77;;;3.47;;
8663;SDS011;4369;47.842;13.096;2022-07-29T03:51:08;4.87;;;4.00;;
8663;SDS011;4369;47.842;13.096;2022-07-29T03:53:35;4.35;;;3.97;;
8663;SDS011;4369;47.842;13.096;2022-07-29T03:56:03;4.23;;;3.93;;
8663;SDS011;4369;47.842;13.096;2022-07-29T03:58:33;3.97;;;3.63;;
8663;SDS011;4369;47.842;13.096;2022-07-29T04:01:01;3.80;;;3.50;;
8663;SDS011;4369;47.842;13.096;2022-07-29T04:03:28;4.20;;;3.90;;
8663;SDS011;4369;47.842;13.096;2022-07-29T04:05:58;3.97;;;3.57;;
8663;SDS011;4369;47.842;13.096;2022-07-29T04:08:26;3.60;;;3.30;;
8663;SDS011;4369;47.842;13.096;2022-07-29T04:10:53;3.97;;;3.67;;
8663;SDS011;4369;47.842;13.096;2022-07-29T04:13:20;3.27;;;3.07;;
8663;SDS011;4369;47.842;13.096;2022-07-29T04:15:48;3.77;;;3.47;;
8663;SDS011;4369;47.842;13.096;2022-07-29T04:18:15;3.60;;;3.40;;
8663;SDS011;4369;47.842;13.096;2022-07-29T04:20:41;3.50;;;3.30;;
8663;SDS011;4369;47.842;13.096;2022-07-29T04:23:08;4.07;;;3.72;;
8663;SDS011;4369;47.842;13.096;2022-07-29T04:25:36;3.83;;;3.53;;
8663;SDS011;4369;47.842;13.096;2022-07-29T04:28:04;3.63;;;3.33;;
8663;SDS011;4369;47.842;13.096;2022-07-29T04:30:31;4.23;;;3.83;;
8663;SDS011;4369;47.842;13.096;2022-07-29T04:33:01;3.90;;;3.60;;
8663;SDS011;4369;47.842;13.096;2022-07-29T04:35:29;3.60;;;3.30;;
8663;SDS011;4369;47.842;13.096;2022-07-29T04:37:56;4.47;;;3.90;;
8663;SDS011;4369;47.842;13.096;2022-07-29T04:40:23;4.90;;;4.40;;
8663;SDS011;4369;47.842;13.096;2022-07-29T04:42:50;3.60;;;3.30;;
8663;SDS011;4369;47.842;13.096;2022-07-29T04:45:17;4.20;;;3.80;;
8663;SDS011;4369;47.842;13.096;2022-07-29T04:47:44;4.43;;;3.87;;
8663;SDS011;4369;47.842;13.096;2022-07-29T04:50:12;3.93;;;3.63;;
8663;SDS011;4369;47.842;13.096;2022-07-29T04:52:39;4.20;;;3.80;;
8663;SDS011;4369;47.842;13.096;2022-07-29T04:55:06;4.93;;;4.00;;
8663;SDS011;4369;47.842;13.096;2022-07-29T04:57:33;3.73;;;3.37;;
8663;SDS011;4369;47.842;13.096;2022-07-29T05:00:00;3.70;;;3.40;;
8663;SDS011;4369;47.842;13.096;2022-07-29T05:02:27;3.63;;;3.33;;
8663;SDS011;4369;47.842;13.096;2022-07-29T05:04:54;3.40;;;3.20;;
8663;SDS011;4369;47.842;13.096;2022-07-29T05:07:23;3.90;;;3.53;;
8663;SDS011;4369;47.842;13.096;2022-07-29T05:09:50;3.50;;;3.23;;
8663;SDS011;4369;47.842;13.096;2022-07-29T05:12:18;4.00;;;3.70;;
8663;SDS011;4369;47.842;13.096;2022-07-29T05:14:44;4.10;;;3.70;;
8663;SDS011;4369;47.842;13.096;2022-07-29T05:17:12;4.23;;;3.80;;
8663;SDS011;4369;47.842;13.096;2022-07-29T05:19:39;4.67;;;3.70;;
8663;SDS011;4369;47.842;13.096;2022-07-29T05:22:05;4.27;;;3.87;;
8663;SDS011;4369;47.842;13.096;2022-07-29T05:24:34;4.80;;;4.40;;
8663;SDS011;4369;47.842;13.096;2022-07-29T05:27:01;4.07;;;3.77;;
8663;SDS011;4369;47.842;13.096;2022-07-29T05:29:28;4.07;;;3.67;;
8663;SDS011;4369;47.842;13.096;2022-07-29T05:31:55;5.27;;;4.37;;
8663;SDS011;4369;47.842;13.096;2022-07-29T05:34:22;4.03;;;3.73;;
8663;SDS011;4369;47.842;13.096;2022-07-29T05:36:50;5.20;;;4.50;;
8663;SDS011;4369;47.842;13.096;2022-07-29T05:39:16;5.43;;;4.30;;
8663;SDS011;4369;47.842;13.096;2022-07-29T05:41:45;5.00;;;3.93;;
8663;SDS011;4369;47.842;13.096;2022-07-29T05:44:12;5.33;;;4.20;;
8663;SDS011;4369;47.842;13.096;2022-07-29T05:46:39;6.60;;;5.23;;
8663;SDS011;4369;47.842;13.096;2022-07-29T05:49:07;5.47;;;5.03;;
8663;SDS011;4369;47.842;13.096;2022-07-29T05:51:34;6.67;;;4.80;;
8663;SDS011;4369;47.842;13.096;2022-07-29T05:54:01;7.40;;;5.27;;
8663;SDS011;4369;47.842;13.096;2022-07-29T05:56:28;5.03;;;4.63;;
8663;SDS011;4369;47.842;13.096;2022-07-29T05:58:56;5.77;;;4.80;;
8663;SDS011;4369;47.842;13.096;2022-07-29T06:01:23;6.37;;;4.87;;
8663;SDS011;4369;47.842;13.096;2022-07-29T06:03:51;7.03;;;4.90;;
8663;SDS011;4369;47.842;13.096;2022-07-29T06:06:17;5.73;;;4.47;;
8663;SDS011;4369;47.842;13.096;2022-07-29T06:08:44;4.40;;;3.90;;
8663;SDS011;4369;47.842;13.096;2022-07-29T06:11:11;6.50;;;4.07;;
8663;SDS011;4369;47.842;13.096;2022-07-29T06:13:38;4.70;;;4.20;;
8663;SDS011;4369;47.842;13.096;2022-07-29T06:16:06;5.50;;;3.90;;
8663;SDS011;4369;47.842;13.096;2022-07-29T06:18:33;4.37;;;4.07;;
8663;SDS011;4369;47.842;13.096;2022-07-29T06:21:00;4.83;;;3.53;;
8663;SDS011;4369;47.842;13.096;2022-07-29T06:23:27;6.40;;;3.80;;
8663;SDS011;4369;47.842;13.096;2022-07-29T06:25:53;4.37;;;3.63;;
8663;SDS011;4369;47.842;13.096;2022-07-29T06:28:20;3.93;;;3.63;;
8663;SDS011;4369;47.842;13.096;2022-07-29T06:30:47;3.73;;;3.43;;
8663;SDS011;4369;47.842;13.096;2022-07-29T06:33:18;5.03;;;3.63;;
8663;SDS011;4369;47.842;13.096;2022-07-29T06:35:45;4.20;;;3.90;;
8663;SDS011;4369;47.842;13.096;2022-07-29T06:38:14;4.27;;;3.87;;
8663;SDS011;4369;47.842;13.096;2022-07-29T06:40:41;4.60;;;3.90;;
8663;SDS011;4369;47.842;13.096;2022-07-29T06:43:27;6.33;;;3.47;;
8663;SDS011;4369;47.842;13.096;2022-07-29T06:45:57;3.87;;;3.57;;
8663;SDS011;4369;47.842;13.096;2022-07-29T06:48:26;4.10;;;3.70;;
8663;SDS011;4369;47.842;13.096;2022-07-29T06:50:53;3.97;;;3.47;;
8663;SDS011;4369;47.842;13.096;2022-07-29T06:53:19;4.60;;;3.47;;
8663;SDS011;4369;47.842;13.096;2022-07-29T06:55:46;4.75;;;4.15;;
8663;SDS011;4369;47.842;13.096;2022-07-29T06:58:13;4.63;;;3.97;;
8663;SDS011;4369;47.842;13.096;2022-07-29T07:00:42;4.27;;;3.50;;
8663;SDS011;4369;47.842;13.096;2022-07-29T07:03:10;4.13;;;3.83;;
8663;SDS011;4369;47.842;13.096;2022-07-29T07:05:38;3.67;;;3.33;;
8663;SDS011;4369;47.842;13.096;2022-07-29T07:08:05;3.83;;;3.53;;
8663;SDS011;4369;47.842;13.096;2022-07-29T07:10:33;3.67;;;3.37;;
8663;SDS011;4369;47.842;13.096;2022-07-29T07:13:00;4.83;;;3.30;;
8663;SDS011;4369;47.842;13.096;2022-07-29T07:15:27;3.90;;;3.60;;
8663;SDS011;4369;47.842;13.096;2022-07-29T07:17:54;3.80;;;3.50;;
8663;SDS011;4369;47.842;13.096;2022-07-29T07:20:22;4.27;;;3.67;;
8663;SDS011;4369;47.842;13.096;2022-07-29T07:22:50;3.93;;;3.40;;
8663;SDS011;4369;47.842;13.096;2022-07-29T07:25:17;3.73;;;3.43;;
8663;SDS011;4369;47.842;13.096;2022-07-29T07:27:44;6.27;;;3.83;;
8663;SDS011;4369;47.842;13.096;2022-07-29T07:30:11;4.27;;;3.87;;
8663;SDS011;4369;47.842;13.096;2022-07-29T07:32:39;5.00;;;4.07;;
8663;SDS011;4369;47.842;13.096;2022-07-29T07:35:07;5.43;;;4.40;;
8663;SDS011;4369;47.842;13.096;2022-07-29T07:37:35;4.10;;;3.77;;
8663;SDS011;4369;47.842;13.096;2022-07-29T07:40:04;4.57;;;4.17;;
8663;SDS011;4369;47.842;13.096;2022-07-29T07:42:31;4.27;;;3.97;;
8663;SDS011;4369;47.842;13.096;2022-07-29T07:44:58;4.50;;;4.10;;
8663;SDS011;4369;47.842;13.096;2022-07-29T07:47:25;4.73;;;4.00;;
8663;SDS011;4369;47.842;13.096;2022-07-29T07:49:52;4.30;;;4.00;;
8663;SDS011;4369;47.842;13.096;2022-07-29T07:52:20;4.10;;;3.80;;
8663;SDS011;4369;47.842;13.096;2022-07-29T07:54:47;4.13;;;3.70;;
8663;SDS011;4369;47.842;13.096;2022-07-29T07:57:16;4.63;;;4.10;;
8663;SDS011;4369;47.842;13.096;2022-07-29T07:59:43;5.13;;;3.80;;
8663;SDS011;4369;47.842;13.096;2022-07-29T08:02:09;8.23;;;4.00;;
8663;SDS011;4369;47.842;13.096;2022-07-29T08:04:36;3.63;;;3.33;;
8663;SDS011;4369;47.842;13.096;2022-07-29T08:07:05;4.20;;;3.40;;
8663;SDS011;4369;47.842;13.096;2022-07-29T08:09:32;4.33;;;3.30;;
8663;SDS011;4369;47.842;13.096;2022-07-29T08:11:59;4.07;;;3.57;;
8663;SDS011;4369;47.842;13.096;2022-07-29T08:14:30;3.47;;;3.17;;
8663;SDS011;4369;47.842;13.096;2022-07-29T08:16:57;3.70;;;3.40;;
8663;SDS011;4369;47.842;13.096;2022-07-29T08:19:24;3.87;;;3.00;;
8663;SDS011;4369;47.842;13.096;2022-07-29T08:21:51;3.83;;;3.23;;
8663;SDS011;4369;47.842;13.096;2022-07-29T08:24:18;4.20;;;3.00;;
8663;SDS011;4369;47.842;13.096;2022-07-29T08:27:02;3.40;;;3.10;;
8663;SDS011;4369;47.842;13.096;2022-07-29T08:29:31;3.40;;;3.10;;
8663;SDS011;4369;47.842;13.096;2022-07-29T08:31:57;3.70;;;2.90;;
8663;SDS011;4369;47.842;13.096;2022-07-29T08:34:24;4.00;;;2.90;;
8663;SDS011;4369;47.842;13.096;2022-07-29T08:36:51;3.87;;;3.20;;
8663;SDS011;4369;47.842;13.096;2022-07-29T08:39:18;3.40;;;3.20;;
8663;SDS011;4369;47.842;13.096;2022-07-29T08:41:45;3.23;;;3.03;;
8663;SDS011;4369;47.842;13.096;2022-07-29T08:44:12;3.30;;;3.10;;
8663;SDS011;4369;47.842;13.096;2022-07-29T08:46:42;3.30;;;3.00;;
8663;SDS011;4369;47.842;13.096;2022-07-29T08:49:10;3.70;;;3.40;;
8663;SDS011;4369;47.842;13.096;2022-07-29T08:51:36;3.27;;;3.03;;
8663;SDS011;4369;47.842;13.096;2022-07-29T08:57:04;3.10;;;2.90;;
8663;SDS011;4369;47.842;13.096;2022-07-29T08:59:40;4.17;;;3.27;;
8663;SDS011;4369;47.842;13.096;2022-07-29T09:02:11;3.83;;;3.00;;
8663;SDS011;4369;47.842;13.096;2022-07-29T09:04:46;3.80;;;3.50;;
8663;SDS011;4369;47.842;13.096;2022-07-29T09:07:14;3.67;;;2.80;;
8663;SDS011;4369;47.842;13.096;2022-07-29T09:09:42;3.50;;;3.23;;
8663;SDS011;4369;47.842;13.096;2022-07-29T09:12:09;3.73;;;3.20;;
8663;SDS011;4369;47.842;13.096;2022-07-29T09:14:37;3.70;;;3.40;;
8663;SDS011;4369;47.842;13.096;2022-07-29T09:17:04;3.27;;;3.07;;
8663;SDS011;4369;47.842;13.096;2022-07-29T09:19:33;3.37;;;3.07;;
8663;SDS011;4369;47.842;13.096;2022-07-29T09:22:03;3.50;;;3.10;;
8663;SDS011;4369;47.842;13.096;2022-07-29T09:24:38;3.03;;;2.83;;
8663;SDS011;4369;47.842;13.096;2022-07-29T09:27:10;4.35;;;2.90;;
8663;SDS011;4369;47.842;13.096;2022-07-29T09:29:46;3.15;;;2.58;;
8663;SDS011;4369;47.842;13.096;2022-07-29T09:32:13;3.70;;;3.30;;
8663;SDS011;4369;47.842;13.096;2022-07-29T09:34:41;3.13;;;2.90;;
8663;SDS011;4369;47.842;13.096;2022-07-29T09:37:08;2.90;;;2.60;;
8663;SDS011;4369;47.842;13.096;2022-07-29T09:39:37;3.05;;;2.83;;
8663;SDS011;4369;47.842;13.096;2022-07-29T09:42:10;3.95;;;2.88;;
8663;SDS011;4369;47.842;13.096;2022-07-29T09:44:44;2.97;;;2.78;;
8663;SDS011;4369;47.842;13.096;2022-07-29T09:47:13;3.08;;;2.78;;
8663;SDS011;4369;47.842;13.096;2022-07-29T09:49:52;3.30;;;2.75;;
8663;SDS011;4369;47.842;13.096;2022-07-29T09:52:20;3.03;;;2.83;;
8663;SDS011;4369;47.842;13.096;2022-07-29T09:54:47;3.13;;;2.85;;
8663;SDS011;4369;47.842;13.096;2022-07-29T09:57:21;3.30;;;3.10;;
8663;SDS011;4369;47.842;13.096;2022-07-29T09:59:56;3.42;;;2.85;;
8663;SDS011;4369;47.842;13.096;2022-07-29T10:02:27;4.10;;;2.70;;
8663;SDS011;4369;47.842;13.096;2022-07-29T10:04:57;3.25;;;3.05;;
8663;SDS011;4369;47.842;13.096;2022-07-29T10:07:25;3.53;;;2.80;;
8663;SDS011;4369;47.842;13.096;2022-07-29T10:09:52;3.58;;;2.63;;
8663;SDS011;4369;47.842;13.096;2022-07-29T10:12:21;3.15;;;2.70;;
8663;SDS011;4369;47.842;13.096;2022-07-29T10:14:48;4.63;;;2.80;;
8663;SDS011;4369;47.842;13.096;2022-07-29T10:17:16;2.58;;;2.45;;
8663;SDS011;4369;47.842;13.096;2022-07-29T10:19:44;2.78;;;2.58;;
8663;SDS011;4369;47.842;13.096;2022-07-29T10:22:13;2.78;;;2.55;;
8663;SDS011;4369;47.842;13.096;2022-07-29T10:24:40;2.92;;;2.70;;
8663;SDS011;4369;47.842;13.096;2022-07-29T10:27:07;2.67;;;2.47;;
8663;SDS011;4369;47.842;13.096;2022-07-29T10:29:35;4.35;;;2.78;;
8663;SDS011;4369;47.842;13.096;2022-07-29T10:32:07;2.67;;;2.47;;
8663;SDS011;4369;47.842;13.096;2022-07-29T10:34:57;2.90;;;2.60;;
8663;SDS011;4369;47.842;13.096;2022-07-29T10:38:04;2.83;;;2.63;;
8663;SDS011;4369;47.842;13.096;2022-07-29T10:40:43;2.78;;;2.58;;
8663;SDS011;4369;47.842;13.096;2022-07-29T10:43:36;2.50;;;2.40;;
8663;SDS011;4369;47.842;13.096;2022-07-29T10:46:07;3.00;;;2.80;;
8663;SDS011;4369;47.842;13.096;2022-07-29T10:51:52;3.25;;;2.60;;
8663;SDS011;4369;47.842;13.096;2022-07-29T10:57:15;2.83;;;2.35;;
8663;SDS011;4369;47.842;13.096;2022-07-29T10:59:47;2.45;;;2.33;;
8663;SDS011;4369;47.842;13.096;2022-07-29T11:05:09;2.30;;;2.20;;
8663;SDS011;4369;47.842;13.096;2022-07-29T11:07:38;3.53;;;2.50;;
8663;SDS011;4369;47.842;13.096;2022-07-29T11:10:22;2.17;;;2.08;;
8663;SDS011;4369;47.842;13.096;2022-07-29T11:12:51;2.63;;;2.45;;
8663;SDS011;4369;47.842;13.096;2022-07-29T11:15:19;2.50;;;2.40;;
8663;SDS011;4369;47.842;13.096;2022-07-29T11:18:05;2.45;;;2.28;;
8663;SDS011;4369;47.842;13.096;2022-07-29T11:20:33;3.65;;;2.70;;
8663;SDS011;4369;47.842;13.096;2022-07-29T11:23:16;3.38;;;2.58;;
8663;SDS011;4369;47.842;13.096;2022-07-29T11:25:44;3.17;;;2.88;;
8663;SDS011;4369;47.842;13.096;2022-07-29T11:28:15;2.63;;;2.42;;
8663;SDS011;4369;47.842;13.096;2022-07-29T11:34:17;3.20;;;2.90;;
8663;SDS011;4369;47.842;13.096;2022-07-29T11:39:44;3.63;;;3.33;;
8663;SDS011;4369;47.842;13.096;2022-07-29T11:45:13;3.42;;;3.13;;
8663;SDS011;4369;47.842;13.096;2022-07-29T11:47:51;3.13;;;2.90;;
8663;SDS011;4369;47.842;13.096;2022-07-29T11:50:27;3.20;;;3.00;;
8663;SDS011;4369;47.842;13.096;2022-07-29T11:52:59;3.75;;;3.25;;
8663;SDS011;4369;47.842;13.096;2022-07-29T11:55:28;2.88;;;2.67;;
8663;SDS011;4369;47.842;13.096;2022-07-29T11:57:58;3.50;;;2.97;;
8663;SDS011;4369;47.842;13.096;2022-07-29T12:00:29;3.15;;;2.95;;
8663;SDS011;4369;47.842;13.096;2022-07-29T12:02:57;3.17;;;2.88;;
8663;SDS011;4369;47.842;13.096;2022-07-29T12:05:32;4.00;;;2.90;;
8663;SDS011;4369;47.842;13.096;2022-07-29T12:08:10;2.92;;;2.65;;
8663;SDS011;4369;47.842;13.096;2022-07-29T12:10:39;2.78;;;2.60;;
8663;SDS011;4369;47.842;13.096;2022-07-29T12:13:08;3.10;;;2.80;;
8663;SDS011;4369;47.842;13.096;2022-07-29T12:15:37;3.25;;;3.05;;
8663;SDS011;4369;47.842;13.096;2022-07-29T12:18:14;3.00;;;2.75;;
8663;SDS011;4369;47.842;13.096;2022-07-29T12:20:43;4.45;;;3.15;;
8663;SDS011;4369;47.842;13.096;2022-07-29T12:23:10;2.90;;;2.70;;
8663;SDS011;4369;47.842;13.096;2022-07-29T12:25:38;4.18;;;2.72;;
8663;SDS011;4369;47.842;13.096;2022-07-29T12:28:08;3.08;;;2.80;;
8663;SDS011;4369;47.842;13.096;2022-07-29T12:30:42;3.22;;;2.97;;
8663;SDS011;4369;47.842;13.096;2022-07-29T12:33:14;3.00;;;2.70;;
8663;SDS011;4369;47.842;13.096;2022-07-29T12:35:44;3.45;;;3.20;;
8663;SDS011;4369;47.842;13.096;2022-07-29T12:38:13;2.88;;;2.67;;
8663;SDS011;4369;47.842;13.096;2022-07-29T12:40:41;3.40;;;3.10;;
8663;SDS011;4369;47.842;13.096;2022-07-29T12:43:10;3.42;;;3.22;;
8663;SDS011;4369;47.842;13.096;2022-07-29T12:45:38;2.97;;;2.78;;
8663;SDS011;4369;47.842;13.096;2022-07-29T12:48:07;3.00;;;2.80;;
8663;SDS011;4369;47.842;13.096;2022-07-29T12:50:35;2.75;;;2.55;;
8663;SDS011;4369;47.842;13.096;2022-07-29T12:53:09;3.20;;;3.00;;
8663;SDS011;4369;47.842;13.096;2022-07-29T12:55:42;3.20;;;2.92;;
8663;SDS011;4369;47.842;13.096;2022-07-29T12:58:13;3.50;;;3.20;;
8663;SDS011;4369;47.842;13.096;2022-07-29T13:00:58;2.55;;;2.45;;
8663;SDS011;4369;47.842;13.096;2022-07-29T13:03:42;2.50;;;2.40;;
8663;SDS011;4369;47.842;13.096;2022-07-29T13:08:59;2.85;;;2.65;;
8663;SDS011;4369;47.842;13.096;2022-07-29T13:11:28;2.38;;;2.28;;
8663;SDS011;4369;47.842;13.096;2022-07-29T13:13:55;3.10;;;2.80;;
8663;SDS011;4369;47.842;13.096;2022-07-29T13:16:22;2.90;;;2.70;;
8663;SDS011;4369;47.842;13.096;2022-07-29T13:18:54;2.78;;;2.58;;
8663;SDS011;4369;47.842;13.096;2022-07-29T13:21:30;2.92;;;2.70;;
8663;SDS011;4369;47.842;13.096;2022-07-29T13:23:56;4.25;;;3.50;;
8663;SDS011;4369;47.842;13.096;2022-07-29T13:26:23;3.03;;;2.55;;
8663;SDS011;4369;47.842;13.096;2022-07-29T13:28:50;4.10;;;2.70;;
8663;SDS011;4369;47.842;13.096;2022-07-29T13:31:17;2.90;;;2.70;;
8663;SDS011;4369;47.842;13.096;2022-07-29T13:33:44;2.95;;;2.50;;
8663;SDS011;4369;47.842;13.096;2022-07-29T13:36:12;2.90;;;2.70;;
8663;SDS011;4369;47.842;13.096;2022-07-29T13:38:39;2.63;;;2.42;;
8663;SDS011;4369;47.842;13.096;2022-07-29T13:41:05;2.95;;;2.40;;
8663;SDS011;4369;47.842;13.096;2022-07-29T13:43:32;2.85;;;2.65;;
8663;SDS011;4369;47.842;13.096;2022-07-29T13:45:59;2.42;;;2.22;;
8663;SDS011;4369;47.842;13.096;2022-07-29T13:48:26;2.65;;;2.45;;
8663;SDS011;4369;47.842;13.096;2022-07-29T13:50:53;2.45;;;2.30;;
8663;SDS011;4369;47.842;13.096;2022-07-29T13:53:21;2.67;;;2.47;;
8663;SDS011;4369;47.842;13.096;2022-07-29T13:55:48;2.60;;;2.40;;
8663;SDS011;4369;47.842;13.096;2022-07-29T13:58:16;2.42;;;2.25;;
8663;SDS011;4369;47.842;13.096;2022-07-29T14:00:43;2.47;;;2.17;;
8663;SDS011;4369;47.842;13.096;2022-07-29T14:03:10;2.25;;;2.10;;
8663;SDS011;4369;47.842;13.096;2022-07-29T14:05:37;2.13;;;2.03;;
8663;SDS011;4369;47.842;13.096;2022-07-29T14:08:04;2.22;;;2.13;;
8663;SDS011;4369;47.842;13.096;2022-07-29T14:10:32;2.83;;;2.05;;
8663;SDS011;4369;47.842;13.096;2022-07-29T14:12:59;2.20;;;2.10;;
8663;SDS011;4369;47.842;13.096;2022-07-29T14:15:26;2.50;;;2.30;;
8663;SDS011;4369;47.842;13.096;2022-07-29T14:17:52;2.50;;;2.30;;
8663;SDS011;4369;47.842;13.096;2022-07-29T14:20:19;3.05;;;2.45;;
8663;SDS011;4369;47.842;13.096;2022-07-29T14:22:46;2.30;;;2.20;;
8663;SDS011;4369;47.842;13.096;2022-07-29T14:25:13;2.40;;;2.20;;
8663;SDS011;4369;47.842;13.096;2022-07-29T14:27:41;2.63;;;2.40;;
8663;SDS011;4369;47.842;13.096;2022-07-29T14:33:09;2.25;;;2.15;;
8663;SDS011;4369;47.842;13.096;2022-07-29T14:35:36;2.33;;;2.22;;
8663;SDS011;4369;47.842;13.096;2022-07-29T14:38:02;2.20;;;2.10;;
8663;SDS011;4369;47.842;13.096;2022-07-29T14:40:29;3.28;;;2.78;;
8663;SDS011;4369;47.842;13.096;2022-07-29T14:42:58;2.47;;;2.05;;
8663;SDS011;4369;47.842;13.096;2022-07-29T14:45:25;4.07;;;2.50;;
8663;SDS011;4369;47.842;13.096;2022-07-29T14:47:53;3.00;;;2.80;;
8663;SDS011;4369;47.842;13.096;2022-07-29T14:50:20;3.10;;;2.65;;
8663;SDS011;4369;47.842;13.096;2022-07-29T14:52:47;2.35;;;2.22;;
8663;SDS011;4369;47.842;13.096;2022-07-29T14:55:14;3.45;;;2.40;;
8663;SDS011;4369;47.842;13.096;2022-07-29T14:57:40;3.35;;;2.95;;
8663;SDS011;4369;47.842;13.096;2022-07-29T15:00:10;2.83;;;2.63;;
8663;SDS011;4369;47.842;13.096;2022-07-29T15:02:37;2.53;;;2.33;;
8663;SDS011;4369;47.842;13.096;2022-07-29T15:05:04;2.78;;;2.58;;
8663;SDS011;4369;47.842;13.096;2022-07-29T15:07:32;3.38;;;2.90;;
8663;SDS011;4369;47.842;13.096;2022-07-29T15:09:58;2.92;;;2.72;;
8663;SDS011;4369;47.842;13.096;2022-07-29T15:12:25;2.47;;;2.30;;
8663;SDS011;4369;47.842;13.096;2022-07-29T15:14:52;2.70;;;2.50;;
8663;SDS011;4369;47.842;13.096;2022-07-29T15:17:21;3.97;;;2.20;;
8663;SDS011;4369;47.842;13.096;2022-07-29T15:19:48;3.05;;;2.75;;
8663;SDS011;4369;47.842;13.096;2022-07-29T15:22:15;2.50;;;2.40;;
8663;SDS011;4369;47.842;13.096;2022-07-29T15:24:41;3.35;;;2.63;;
8663;SDS011;4369;47.842;13.096;2022-07-29T15:27:09;2.90;;;2.70;;
8663;SDS011;4369;47.842;13.096;2022-07-29T15:29:39;3.10;;;2.90;;
8663;SDS011;4369;47.842;13.096;2022-07-29T15:32:06;2.90;;;2.70;;
8663;SDS011;4369;47.842;13.096;2022-07-29T15:34:35;2.80;;;2.58;;
8663;SDS011;4369;47.842;13.096;2022-07-29T15:37:02;3.08;;;2.83;;
8663;SDS011;4369;47.842;13.096;2022-07-29T15:39:29;3.13;;;2.80;;